createdAt,value
2022-09-20T00:00:48.471Z,3.95
2022-09-20T00:03:16.832Z,5.53
2022-09-20T00:05:45.425Z,5.20
2022-09-20T00:08:14.483Z,2.47
2022-09-20T00:10:42.543Z,2.40
2022-09-20T00:13:12.911Z,3.03
2022-09-20T00:15:45.703Z,2.03
2022-09-20T00:18:13.372Z,2.97
2022-09-20T00:20:47.660Z,2.42
2022-09-20T00:23:14.607Z,3.30
2022-09-20T00:25:41.472Z,7.32
2022-09-20T00:28:09.198Z,2.40
2022-09-20T00:30:37.096Z,1.40
2022-09-20T00:33:03.963Z,2.70
2022-09-20T00:35:31.299Z,3.40
2022-09-20T00:37:58.015Z,2.05
2022-09-20T00:40:27.026Z,2.78
2022-09-20T00:42:54.905Z,2.90
2022-09-20T00:45:25.841Z,1.85
2022-09-20T00:48:24.442Z,3.97
2022-09-20T00:50:59.788Z,2.20
2022-09-20T00:53:31.893Z,4.05
2022-09-20T00:56:06.790Z,4.18
2022-09-20T00:58:36.845Z,3.15
2022-09-20T01:01:05.843Z,2.28
2022-09-20T01:03:35.589Z,3.28
2022-09-20T01:06:07.077Z,5.70
2022-09-20T01:08:35.309Z,3.05
2022-09-20T01:11:02.528Z,2.50
2022-09-20T01:13:29.222Z,2.72
2022-09-20T01:15:59.033Z,1.55
2022-09-20T01:18:26.945Z,4.13
2022-09-20T01:20:54.520Z,4.60
2022-09-20T01:23:31.797Z,2.40
2022-09-20T01:26:23.579Z,2.88
2022-09-20T01:28:58.540Z,4.30
2022-09-20T01:31:29.716Z,2.60
2022-09-20T01:34:09.605Z,3.08
2022-09-20T01:36:59.036Z,5.78
2022-09-20T01:39:50.805Z,5.72
2022-09-20T01:42:17.696Z,5.68
2022-09-20T01:45:08.708Z,4.72
2022-09-20T01:47:57.459Z,7.10
2022-09-20T01:50:37.204Z,5.72
2022-09-20T01:53:18.976Z,4.03
2022-09-20T01:56:03.806Z,5.40
2022-09-20T02:02:03.949Z,3.25
2022-09-20T02:04:58.100Z,3.38
2022-09-20T02:07:54.748Z,3.28
2022-09-20T02:10:41.560Z,3.28
2022-09-20T02:13:33.351Z,6.85
2022-09-20T02:16:16.677Z,3.70
2022-09-20T02:18:46.361Z,7.72
2022-09-20T02:21:40.902Z,5.13
2022-09-20T02:24:27.329Z,9.70
2022-09-20T02:27:10.765Z,4.85
2022-09-20T02:30:13.122Z,6.68
2022-09-20T02:33:07.278Z,5.93
2022-09-20T02:36:01.292Z,4.50
2022-09-20T02:38:49.309Z,5.90
2022-09-20T02:41:24.777Z,4.25
2022-09-20T02:44:15.386Z,3.38
2022-09-20T02:47:04.667Z,3.17
2022-09-20T02:50:27.627Z,3.95
2022-09-20T02:53:06.124Z,4.22
2022-09-20T02:55:47.182Z,5.80
2022-09-20T02:58:41.237Z,4.97
2022-09-20T03:01:23.101Z,4.10
2022-09-20T03:04:05.185Z,5.18
2022-09-20T03:06:52.942Z,4.97
2022-09-20T03:09:28.967Z,5.03
2022-09-20T03:12:22.866Z,6.32
2022-09-20T03:15:00.496Z,5.40
2022-09-20T03:17:49.988Z,5.97
2022-09-20T03:20:28.679Z,4.28
2022-09-20T03:23:22.500Z,5.75
2022-09-20T03:26:02.361Z,4.40
2022-09-20T03:28:37.974Z,4.07
2022-09-20T03:31:21.643Z,3.78
2022-09-20T03:34:17.762Z,4.30
2022-09-20T03:36:47.193Z,4.03
2022-09-20T03:39:34.222Z,5.22
2022-09-20T03:42:20.205Z,2.28
2022-09-20T03:45:25.380Z,3.38
2022-09-20T03:48:01.088Z,4.28
2022-09-20T03:50:38.782Z,3.92
2022-09-20T03:53:43.080Z,4.53
2022-09-20T03:56:10.589Z,4.03
2022-09-20T03:59:05.591Z,3.13
2022-09-20T04:01:38.525Z,6.10
2022-09-20T04:04:08.546Z,3.92
2022-09-20T04:06:38.377Z,2.85
2022-09-20T04:09:05.083Z,5.43
2022-09-20T04:11:42.873Z,3.55
2022-09-20T04:14:28.092Z,3.53
2022-09-20T04:17:16.056Z,2.35
2022-09-20T04:19:53.409Z,2.85
2022-09-20T04:22:22.899Z,2.00
2022-09-20T04:24:56.172Z,3.33
2022-09-20T04:27:32.106Z,5.18
2022-09-20T04:30:10.747Z,2.70
2022-09-20T04:32:59.296Z,2.47
2022-09-20T04:36:12.461Z,4.60
2022-09-20T04:38:39.686Z,5.47
2022-09-20T04:41:40.543Z,3.97
2022-09-20T04:44:27.748Z,3.45
2022-09-20T04:47:09.703Z,3.28
2022-09-20T04:49:48.273Z,5.22
2022-09-20T04:52:17.685Z,3.50
2022-09-20T04:55:13.446Z,6.78
2022-09-20T04:58:22.376Z,12.05
2022-09-20T05:01:17.276Z,13.75
2022-09-20T05:04:02.569Z,9.95
2022-09-20T05:07:04.475Z,7.65
2022-09-20T05:10:08.363Z,9.30
2022-09-20T05:12:56.740Z,4.75
2022-09-20T05:15:38.417Z,6.85
2022-09-20T05:18:15.222Z,9.52
2022-09-20T05:21:06.607Z,9.32
2022-09-20T05:23:33.272Z,7.55
2022-09-20T05:26:14.860Z,8.20
2022-09-20T05:28:53.878Z,6.18
2022-09-20T05:31:51.769Z,5.28
2022-09-20T05:34:24.597Z,5.00
2022-09-20T05:37:18.302Z,7.03
2022-09-20T05:39:47.915Z,5.47
2022-09-20T05:42:26.794Z,5.28
2022-09-20T05:45:31.044Z,5.85
2022-09-20T05:48:12.472Z,6.43
2022-09-20T05:51:03.494Z,7.05
2022-09-20T05:54:08.556Z,10.27
2022-09-20T05:56:45.490Z,14.25
2022-09-20T05:59:21.397Z,6.35
2022-09-20T06:02:15.313Z,8.70
2022-09-20T06:05:06.817Z,5.93
2022-09-20T06:08:03.734Z,6.00
2022-09-20T06:11:02.855Z,6.32
2022-09-20T06:14:03.711Z,7.32
2022-09-20T06:16:43.228Z,7.03
2022-09-20T06:19:17.301Z,7.85
2022-09-20T06:21:52.550Z,8.05
2022-09-20T06:24:35.521Z,8.73
2022-09-20T06:27:08.788Z,9.40
2022-09-20T06:29:39.430Z,8.90
2022-09-20T06:32:06.116Z,7.80
2022-09-20T06:34:32.943Z,5.50
2022-09-20T06:37:38.442Z,6.82
2022-09-20T06:43:14.519Z,5.17
2022-09-20T06:45:42.956Z,7.07
2022-09-20T06:48:11.628Z,5.63
2022-09-20T06:50:38.887Z,4.82
2022-09-20T06:53:06.791Z,5.30
2022-09-20T06:55:40.987Z,4.85
2022-09-20T06:58:09.802Z,4.53
2022-09-20T07:00:37.219Z,6.63
2022-09-20T07:03:04.039Z,3.95
2022-09-20T07:05:30.734Z,4.60
2022-09-20T07:07:58.974Z,3.55
2022-09-20T07:10:30.417Z,5.72
2022-09-20T07:13:01.802Z,4.15
2022-09-20T07:15:30.855Z,5.55
2022-09-20T07:17:57.549Z,5.53
2022-09-20T07:20:24.387Z,6.47
2022-09-20T07:22:51.130Z,4.38
2022-09-20T07:25:18.496Z,4.10
2022-09-20T07:27:46.527Z,5.80
2022-09-20T07:30:14.988Z,7.22
2022-09-20T07:32:42.153Z,5.43
2022-09-20T07:35:12.679Z,4.97
2022-09-20T07:37:42.841Z,7.93
2022-09-20T07:40:10.993Z,6.40
2022-09-20T07:42:38.014Z,6.55
2022-09-20T07:45:05.225Z,6.07
2022-09-20T07:47:35.242Z,6.47
2022-09-20T07:50:02.814Z,4.75
2022-09-20T07:52:29.562Z,6.80
2022-09-20T07:54:56.397Z,5.43
2022-09-20T07:57:23.396Z,4.97
2022-09-20T07:59:50.133Z,6.85
2022-09-20T08:02:17.200Z,4.55
2022-09-20T08:04:44.659Z,6.25
2022-09-20T08:07:12.708Z,6.70
2022-09-20T08:09:39.471Z,4.80
2022-09-20T08:14:55.459Z,4.32
2022-09-20T08:17:22.279Z,5.80
2022-09-20T08:19:48.996Z,6.50
2022-09-20T08:22:15.836Z,7.38
2022-09-20T08:24:44.205Z,8.13
2022-09-20T08:27:11.172Z,4.38
2022-09-20T08:29:38.131Z,5.57
2022-09-20T08:32:05.148Z,7.65
2022-09-20T08:34:31.995Z,7.93
2022-09-20T08:36:59.532Z,7.72
2022-09-20T08:42:18.375Z,6.95
2022-09-20T08:45:00.031Z,5.03
2022-09-20T08:47:35.764Z,4.38
2022-09-20T08:50:09.792Z,5.57
2022-09-20T08:52:40.785Z,4.68
2022-09-20T08:55:20.248Z,3.97
2022-09-20T08:57:55.332Z,3.90
2022-09-20T09:00:30.466Z,3.95
2022-09-20T09:03:01.284Z,4.95
2022-09-20T09:05:38.909Z,6.95
2022-09-20T09:08:21.236Z,4.60
2022-09-20T09:11:08.454Z,7.45
2022-09-20T09:13:56.551Z,10.23
2022-09-20T09:16:33.660Z,7.68
2022-09-20T09:19:33.266Z,5.43
2022-09-20T09:22:02.798Z,6.93
2022-09-20T09:24:33.348Z,4.50
2022-09-20T09:27:19.719Z,8.65
2022-09-20T09:29:54.954Z,9.45
2022-09-20T09:32:23.693Z,4.65
2022-09-20T09:34:50.826Z,5.07
2022-09-20T09:37:31.071Z,4.18
2022-09-20T09:40:13.237Z,4.50
2022-09-20T09:42:50.311Z,5.63
2022-09-20T09:45:30.486Z,6.93
2022-09-20T09:48:00.047Z,4.85
2022-09-20T09:50:34.805Z,7.15
2022-09-20T09:53:09.650Z,3.83
2022-09-20T09:56:03.911Z,4.75
2022-09-20T09:58:39.563Z,7.68
2022-09-20T10:01:17.814Z,9.85
2022-09-20T10:03:51.198Z,4.35
2022-09-20T10:06:26.739Z,9.00
2022-09-20T10:09:01.669Z,6.35
2022-09-20T10:11:33.741Z,4.28
2022-09-20T10:14:12.848Z,3.95
2022-09-20T10:17:05.760Z,4.30
2022-09-20T10:19:50.555Z,4.43
2022-09-20T10:23:06.644Z,3.25
2022-09-20T10:28:28.194Z,5.82
2022-09-20T10:31:14.820Z,3.77
2022-09-20T10:33:50.730Z,1.63
2022-09-20T10:36:26.842Z,2.58
2022-09-20T10:39:02.262Z,3.65
2022-09-20T10:42:15.200Z,3.35
2022-09-20T10:45:06.475Z,4.95
2022-09-20T10:47:42.964Z,5.35
2022-09-20T10:50:26.154Z,4.57
2022-09-20T10:53:06.290Z,3.90
2022-09-20T10:56:13.202Z,6.65
2022-09-20T10:59:17.679Z,2.60
2022-09-20T11:01:47.406Z,5.35
2022-09-20T11:04:48.763Z,6.43
2022-09-20T11:07:24.108Z,3.80
2022-09-20T11:10:06.384Z,5.30
2022-09-20T11:12:56.361Z,5.50
2022-09-20T11:15:48.522Z,6.93
2022-09-20T11:18:28.259Z,5.85
2022-09-20T11:21:42.571Z,4.00
2022-09-20T11:24:21.007Z,5.70
2022-09-20T11:27:02.471Z,8.40
2022-09-20T11:29:37.069Z,4.90
2022-09-20T11:35:14.699Z,2.90
2022-09-20T11:37:47.552Z,3.58
2022-09-20T11:40:34.682Z,6.60
2022-09-20T11:43:06.284Z,3.90
2022-09-20T11:45:34.232Z,3.80
2022-09-20T11:48:08.567Z,2.70
2022-09-20T11:51:04.788Z,4.25
2022-09-20T11:53:58.682Z,4.95
2022-09-20T11:56:31.138Z,2.92
2022-09-20T11:59:25.975Z,5.28
2022-09-20T12:01:56.605Z,2.35
2022-09-20T12:04:32.837Z,3.30
2022-09-20T12:07:18.302Z,2.95
2022-09-20T12:10:01.311Z,2.70
2022-09-20T12:12:37.627Z,2.20
2022-09-20T12:15:28.680Z,3.90
2022-09-20T12:17:58.283Z,4.57
2022-09-20T12:20:42.583Z,2.92
2022-09-20T12:23:37.673Z,2.58
2022-09-20T12:26:22.502Z,3.13
2022-09-20T12:31:23.095Z,3.90
2022-09-20T12:34:11.648Z,3.75
2022-09-20T12:36:44.464Z,1.90
2022-09-20T12:39:11.136Z,2.35
2022-09-20T12:41:57.829Z,3.15
2022-09-20T12:44:49.402Z,3.65
2022-09-20T12:47:20.869Z,3.03
2022-09-20T12:50:06.491Z,4.20
2022-09-20T12:52:53.740Z,2.42
2022-09-20T12:55:33.057Z,2.75
2022-09-20T12:58:02.750Z,3.55
2022-09-20T13:00:36.874Z,3.58
2022-09-20T13:03:16.472Z,4.32
2022-09-20T13:05:46.276Z,4.78
2022-09-20T13:08:14.813Z,4.38
2022-09-20T13:10:50.130Z,4.43
2022-09-20T13:13:27.763Z,4.70
2022-09-20T13:15:55.395Z,5.07
2022-09-20T13:18:25.182Z,3.92
2022-09-20T13:20:52.662Z,4.07
2022-09-20T13:23:24.823Z,4.65
2022-09-20T13:25:51.958Z,3.13
2022-09-20T13:28:46.942Z,3.28
2022-09-20T13:31:31.751Z,2.58
2022-09-20T13:36:42.780Z,2.08
2022-09-20T13:39:09.559Z,3.47
2022-09-20T13:41:37.921Z,4.88
2022-09-20T13:44:04.989Z,2.92
2022-09-20T13:46:33.542Z,4.32
2022-09-20T13:49:17.681Z,4.00
2022-09-20T13:51:44.441Z,2.85
2022-09-20T13:54:22.130Z,3.85
2022-09-20T13:56:50.775Z,3.08
2022-09-20T13:59:19.557Z,4.43
2022-09-20T14:01:54.862Z,3.55
2022-09-20T14:04:24.520Z,4.68
2022-09-20T14:06:53.754Z,3.50
2022-09-20T14:09:39.578Z,2.90
2022-09-20T14:12:07.185Z,2.60
2022-09-20T14:14:35.086Z,2.97
2022-09-20T14:17:06.426Z,3.78
2022-09-20T14:19:37.397Z,2.08
2022-09-20T14:22:05.324Z,4.10
2022-09-20T14:24:35.584Z,3.08
2022-09-20T14:27:16.526Z,3.67
2022-09-20T14:29:49.317Z,3.45
2022-09-20T14:32:26.830Z,5.85
2022-09-20T14:34:56.713Z,2.35
2022-09-20T14:37:48.679Z,3.03
2022-09-20T14:40:41.327Z,4.93
2022-09-20T14:43:28.680Z,3.85
2022-09-20T14:46:01.781Z,2.30
2022-09-20T14:48:42.978Z,3.17
2022-09-20T14:51:22.839Z,2.85
2022-09-20T14:54:13.881Z,2.30
2022-09-20T14:56:50.534Z,2.65
2022-09-20T14:59:17.182Z,3.88
2022-09-20T15:01:53.731Z,2.67
2022-09-20T15:04:27.043Z,4.97
2022-09-20T15:06:55.008Z,1.48
2022-09-20T15:09:22.258Z,2.00
2022-09-20T15:12:14.173Z,3.17
2022-09-20T15:14:41.481Z,3.85
2022-09-20T15:17:15.605Z,4.90
2022-09-20T15:19:42.332Z,3.63
2022-09-20T15:22:12.380Z,4.25
2022-09-20T15:24:39.225Z,2.35
2022-09-20T15:27:06.528Z,2.35
2022-09-20T15:29:33.689Z,2.33
2022-09-20T15:32:00.424Z,2.70
2022-09-20T15:34:27.240Z,3.30
2022-09-20T15:36:54.838Z,3.80
2022-09-20T15:39:22.572Z,3.58
2022-09-20T15:41:52.190Z,2.90
2022-09-20T15:44:19.330Z,4.60
2022-09-20T15:46:46.586Z,5.18
2022-09-20T15:49:13.360Z,4.97
2022-09-20T15:51:40.147Z,2.38
2022-09-20T15:54:07.704Z,3.03
2022-09-20T15:56:36.537Z,3.20
2022-09-20T15:59:08.920Z,2.88
2022-09-20T16:01:41.268Z,3.83
2022-09-20T16:04:13.385Z,3.38
2022-09-20T16:06:42.422Z,6.68
2022-09-20T16:09:09.485Z,3.10
2022-09-20T16:11:37.098Z,2.72
2022-09-20T16:14:04.211Z,3.60
2022-09-20T16:16:37.383Z,2.75
2022-09-20T16:19:20.428Z,5.18
2022-09-20T16:21:55.023Z,4.95
2022-09-20T16:24:28.685Z,6.95
2022-09-20T16:26:56.221Z,5.35
2022-09-20T16:29:23.563Z,9.48
2022-09-20T16:31:50.482Z,5.18
2022-09-20T16:34:23.006Z,5.57
2022-09-20T16:36:53.266Z,4.47
2022-09-20T16:39:25.285Z,3.97
2022-09-20T16:41:52.960Z,3.75
2022-09-20T16:44:19.653Z,5.05
2022-09-20T16:46:47.404Z,5.45
2022-09-20T16:49:16.789Z,4.25
2022-09-20T16:51:44.988Z,7.10
2022-09-20T16:54:13.929Z,5.78
2022-09-20T16:56:43.583Z,3.92
2022-09-20T16:59:10.866Z,6.88
2022-09-20T17:01:38.713Z,6.03
2022-09-20T17:04:06.097Z,3.40
2022-09-20T17:06:34.553Z,2.50
2022-09-20T17:09:01.488Z,4.13
2022-09-20T17:11:31.141Z,3.35
2022-09-20T17:13:58.291Z,3.78
2022-09-20T17:16:30.649Z,3.55
2022-09-20T17:19:00.105Z,5.90
2022-09-20T17:21:28.841Z,2.92
2022-09-20T17:23:58.268Z,2.85
2022-09-20T17:26:33.431Z,6.70
2022-09-20T17:29:02.235Z,3.65
2022-09-20T17:31:34.060Z,4.10
2022-09-20T17:34:02.305Z,3.40
2022-09-20T17:36:32.003Z,3.70
2022-09-20T17:39:03.787Z,7.53
2022-09-20T17:41:31.428Z,3.75
2022-09-20T17:43:59.635Z,4.13
2022-09-20T17:46:31.583Z,4.68
2022-09-20T17:49:04.844Z,5.10
2022-09-20T17:51:48.558Z,19.42
2022-09-20T17:54:15.546Z,34.22
2022-09-20T17:56:46.277Z,26.75
2022-09-20T17:59:16.104Z,19.17
2022-09-20T18:01:44.477Z,19.13
2022-09-20T18:04:12.551Z,14.68
2022-09-20T18:06:48.071Z,11.45
2022-09-20T18:09:16.763Z,7.88
2022-09-20T18:11:48.685Z,10.88
2022-09-20T18:14:20.876Z,8.57
2022-09-20T18:16:47.697Z,4.80
2022-09-20T18:19:16.024Z,5.30
2022-09-20T18:21:43.266Z,4.72
2022-09-20T18:24:11.199Z,15.55
2022-09-20T18:26:38.464Z,17.55
2022-09-20T18:29:13.845Z,6.65
2022-09-20T18:31:45.130Z,9.07
2022-09-20T18:34:20.363Z,10.68
2022-09-20T18:36:52.885Z,10.23
2022-09-20T18:39:24.627Z,9.15
2022-09-20T18:41:53.245Z,9.55
2022-09-20T18:44:21.541Z,9.70
2022-09-20T18:46:48.910Z,8.30
2022-09-20T18:49:17.090Z,6.95
2022-09-20T18:51:44.432Z,10.82
2022-09-20T18:54:12.227Z,7.15
2022-09-20T18:56:46.974Z,10.02
2022-09-20T18:59:18.440Z,5.22
2022-09-20T19:01:52.819Z,4.85
2022-09-20T19:04:53.722Z,9.65
2022-09-20T19:07:29.403Z,5.38
2022-09-20T19:09:58.953Z,6.18
2022-09-20T19:12:43.219Z,5.63
2022-09-20T19:15:35.981Z,6.00
2022-09-20T19:18:24.922Z,4.57
2022-09-20T19:21:15.016Z,4.78
2022-09-20T19:24:07.722Z,14.85
2022-09-20T19:26:38.776Z,4.30
2022-09-20T19:29:23.253Z,4.60
2022-09-20T19:31:53.563Z,7.90
2022-09-20T19:34:21.892Z,7.32
2022-09-20T19:37:02.518Z,3.60
2022-09-20T19:39:37.551Z,21.13
2022-09-20T19:42:32.031Z,7.43
2022-09-20T19:45:20.318Z,7.18
2022-09-20T19:48:17.289Z,6.40
2022-09-20T19:51:04.076Z,8.57
2022-09-20T19:53:31.126Z,9.38
2022-09-20T19:56:05.204Z,7.80
2022-09-20T19:58:32.701Z,6.75
2022-09-20T20:00:59.716Z,8.45
2022-09-20T20:03:27.547Z,9.57
2022-09-20T20:06:10.058Z,9.63
2022-09-20T20:08:48.685Z,5.22
2022-09-20T20:11:19.640Z,9.07
2022-09-20T20:14:03.293Z,6.55
2022-09-20T20:16:57.129Z,6.85
2022-09-20T20:19:39.261Z,5.00
2022-09-20T20:22:28.439Z,5.90
2022-09-20T20:24:58.988Z,7.93
2022-09-20T20:27:28.419Z,6.13
2022-09-20T20:29:55.781Z,5.93
2022-09-20T20:32:22.868Z,8.10
2022-09-20T20:34:49.863Z,4.30
2022-09-20T20:37:18.129Z,7.03
2022-09-20T20:39:44.916Z,5.47
2022-09-20T20:42:12.923Z,9.43
2022-09-20T20:44:40.030Z,6.82
2022-09-20T20:47:07.085Z,6.20
2022-09-20T20:49:34.011Z,6.85
2022-09-20T20:52:04.783Z,7.53
2022-09-20T20:54:32.469Z,5.57
2022-09-20T20:56:59.487Z,5.13
2022-09-20T20:59:26.741Z,7.80
2022-09-20T21:01:53.503Z,10.25
2022-09-20T21:04:21.673Z,9.15
2022-09-20T21:06:49.570Z,7.70
2022-09-20T21:09:16.692Z,6.97
2022-09-20T21:11:44.209Z,6.25
2022-09-20T21:14:12.486Z,10.25
2022-09-20T21:16:44.186Z,6.13
2022-09-20T21:19:15.134Z,7.85
2022-09-20T21:21:44.703Z,6.20
2022-09-20T21:24:13.500Z,6.85
2022-09-20T21:26:40.723Z,10.18
2022-09-20T21:29:12.863Z,9.35
2022-09-20T21:31:43.256Z,8.50
2022-09-20T21:34:12.226Z,9.55
2022-09-20T21:36:41.559Z,6.63
2022-09-20T21:39:08.930Z,8.13
2022-09-20T21:41:38.063Z,8.32
2022-09-20T21:44:06.127Z,10.38
2022-09-20T21:46:42.692Z,7.95
2022-09-20T21:49:11.617Z,14.10
2022-09-20T21:51:39.653Z,9.48
2022-09-20T21:54:06.545Z,11.00
2022-09-20T21:56:36.217Z,11.68
2022-09-20T21:59:04.632Z,12.82
2022-09-20T22:01:37.493Z,15.75
2022-09-20T22:04:07.107Z,13.20
2022-09-20T22:06:39.255Z,11.52
2022-09-20T22:09:10.306Z,12.45
2022-09-20T22:11:41.962Z,12.02
2022-09-20T22:14:09.817Z,9.55
2022-09-20T22:16:38.989Z,7.80
2022-09-20T22:19:07.839Z,7.80
2022-09-20T22:21:39.295Z,6.70
2022-09-20T22:24:08.686Z,10.25
2022-09-20T22:26:41.226Z,8.85
2022-09-20T22:29:08.158Z,7.20
2022-09-20T22:31:37.489Z,5.20
2022-09-20T22:34:06.482Z,6.13
2022-09-20T22:36:35.886Z,6.28
2022-09-20T22:39:04.181Z,9.00
2022-09-20T22:41:31.240Z,7.57
2022-09-20T22:43:57.919Z,8.60
2022-09-20T22:46:27.491Z,10.07
2022-09-20T22:48:54.840Z,10.52
2022-09-20T22:51:22.605Z,10.18
2022-09-20T22:53:50.085Z,6.50
2022-09-20T22:56:25.011Z,7.25
2022-09-20T22:58:54.014Z,6.95
2022-09-20T23:01:28.241Z,7.30
2022-09-20T23:03:59.007Z,7.97
2022-09-20T23:06:31.567Z,8.30
2022-09-20T23:09:02.562Z,7.25
2022-09-20T23:11:29.785Z,8.35
2022-09-20T23:13:59.034Z,8.55
2022-09-20T23:16:28.805Z,7.28
2022-09-20T23:18:57.693Z,7.18
2022-09-20T23:21:25.284Z,8.43
2022-09-20T23:23:56.974Z,9.07
2022-09-20T23:26:25.571Z,5.75
2022-09-20T23:28:57.523Z,6.40
2022-09-20T23:31:26.235Z,6.50
2022-09-20T23:33:58.478Z,9.52
2022-09-20T23:36:26.583Z,7.35
2022-09-20T23:38:53.925Z,8.32
2022-09-20T23:41:25.154Z,6.55
2022-09-20T23:43:52.295Z,9.68
2022-09-20T23:46:20.787Z,6.55
2022-09-20T23:48:48.010Z,7.28
2022-09-20T23:51:16.594Z,8.02
2022-09-20T23:53:43.539Z,8.52
2022-09-20T23:56:11.275Z,8.13
2022-09-20T23:58:39.355Z,6.47
